Time;durP1;ratioP1;P1;durP2;ratioP2;P2;SDS_P1;SDS_P2;PMS_P1;PMS_P2;Temp;Humidity;BMP_temperature;BMP_pressure;BME280_temperature;BME280_humidity;BME280_pressure;Samples;Min_cycle;Max_cycle;Signal;HPM_P1;HPM_P2
2021/04/19 00:00:38;;;;;;;37.63;27.92;;;;;;;11.02;67.66;71790.09;5029210;28;20479;-93
2021/04/19 00:03:06;;;;;;;39.55;29.52;;;;;;;9.96;67.41;71669.16;5017882;28;20120;-93
2021/04/19 00:05:32;;;;;;;41.40;29.05;;;;;;;10.25;66.60;71701.91;5029900;28;20038;-91
2021/04/19 00:08:00;;;;;;;45.75;30.20;;;;;;;10.94;66.82;71779.00;5034686;28;20054;-94
2021/04/19 00:10:27;;;;;;;46.20;30.05;;;;;;;11.34;66.52;71824.88;5034113;28;20033;-94
2021/04/19 00:12:57;;;;;;;45.47;31.80;;;;;;;11.18;66.43;71811.31;5013193;28;20488;-92
2021/04/19 00:15:24;;;;;;;48.65;28.27;;;;;;;11.42;67.43;71833.22;5012544;28;20122;-93
2021/04/19 00:18:00;;;;;;;38.78;29.23;;;;;;;10.85;66.42;71773.16;5016377;28;20030;-93
2021/04/19 00:20:31;;;;;;;42.50;25.85;;;;;;;11.42;65.58;71838.72;5024759;28;20052;-93
2021/04/19 00:23:00;;;;;;;44.05;26.38;;;;;;;10.74;65.18;71760.66;4988540;28;20042;-94
2021/04/19 00:25:31;;;;;;;39.22;25.98;;;;;;;9.58;64.80;71628.44;4993654;28;20033;-94
2021/04/19 00:28:01;;;;;;;;;;;;;;;12.04;64.79;71907.53;4994348;28;20026;-92
2021/04/19 00:30:30;;;;;;;29.25;14.80;;;;;;;9.65;61.46;71636.19;5011576;28;19920;-94
2021/04/19 00:33:04;;;;;;;22.02;13.45;;;;;;;9.62;58.72;71632.59;4996269;28;20042;-94
2021/04/19 00:35:41;;;;;;;21.50;11.20;;;;;;;10.33;57.37;71710.84;5030076;28;20034;-92
2021/04/19 00:38:09;;;;;;;19.08;10.50;;;;;;;10.49;57.64;71729.94;5031720;28;20086;-93
2021/04/19 00:40:38;;;;;;;26.52;13.57;;;;;;;11.85;57.88;71886.06;5019770;28;20029;-93
2021/04/19 00:43:06;;;;;;;22.73;10.07;;;;;;;10.84;57.28;71769.84;5018259;28;20038;-93
2021/04/19 00:45:34;;;;;;;22.63;11.65;;;;;;;10.45;57.58;71725.16;5025617;28;20026;-93
2021/04/19 00:48:04;;;;;;;21.98;12.07;;;;;;;11.46;57.28;71843.47;5022115;28;20046;-93
2021/04/19 00:50:34;;;;;;;22.85;11.65;;;;;;;11.96;56.82;71901.34;5023451;28;20033;-92
2021/04/19 00:53:04;;;;;;;21.58;12.57;;;;;;;8.99;57.33;71557.28;5005134;28;20035;-92
2021/04/19 00:55:50;;;;;;;20.17;12.88;;;;;;;11.03;57.80;71791.28;5019054;28;20125;-93
2021/04/19 00:58:21;;;;;;;21.23;13.20;;;;;;;11.21;57.67;71809.38;4996403;28;20043;-92
2021/04/19 01:00:48;;;;;;;38.28;12.52;;;;;;;11.80;57.15;71882.25;5015125;28;20041;-93
2021/04/19 01:03:21;;;;;;;21.35;12.35;;;;;;;11.59;56.80;71859.00;5033971;28;20034;-93
2021/04/19 01:05:52;;;;;;;23.88;13.13;;;;;;;12.67;55.83;71980.28;5033529;28;20120;-93
2021/04/19 01:08:20;;;;;;;27.60;12.57;;;;;;;11.96;56.22;71895.81;5012338;28;20102;-94
2021/04/19 01:10:47;;;;;;;28.80;13.30;;;;;;;11.25;56.60;71816.91;5011596;28;20037;-93
2021/04/19 01:13:16;;;;;;;25.75;11.73;;;;;;;11.56;57.35;71855.41;5016683;28;20022;-94
2021/04/19 01:15:44;;;;;;;18.30;11.73;;;;;;;11.85;56.62;71885.44;5017562;28;20057;-92
2021/04/19 01:18:11;;;;;;;26.52;12.77;;;;;;;12.13;57.15;71918.25;5001596;28;20034;-94
2021/04/19 01:20:43;;;;;;;21.77;11.52;;;;;;;12.08;56.29;71912.31;5029804;28;20105;-92
2021/04/19 01:23:14;;;;;;;23.45;10.45;;;;;;;12.18;56.85;71926.38;5050543;28;20025;-94
2021/04/19 01:25:43;;;;;;;21.63;12.68;;;;;;;11.68;57.09;71868.53;5034589;28;20140;-93
2021/04/19 01:28:13;;;;;;;29.55;12.20;;;;;;;12.26;56.93;71932.59;5017288;28;20041;-94
2021/04/19 01:30:47;;;;;;;21.83;11.88;;;;;;;11.63;57.98;71861.00;5035221;28;20026;-93
2021/04/19 01:33:21;;;;;;;25.20;12.90;;;;;;;11.87;57.25;71890.59;5035918;28;20046;-93
2021/04/19 01:35:49;;;;;;;30.90;14.73;;;;;;;11.12;57.70;71804.75;5008684;28;20035;-92
2021/04/19 01:38:22;;;;;;;19.55;12.25;;;;;;;12.28;57.61;71932.81;5019417;28;20523;-91
2021/04/19 01:40:53;;;;;;;21.45;11.00;;;;;;;12.28;57.56;71938.31;5019655;28;20034;-94
2021/04/19 01:43:21;;;;;;;20.38;12.55;;;;;;;12.61;56.31;71975.91;4998665;28;20053;-92
2021/04/19 01:45:50;;;;;;;27.85;11.52;;;;;;;12.55;56.14;71969.34;4998041;28;20022;-92
2021/04/19 01:48:20;;;;;;;19.63;12.80;;;;;;;12.44;56.11;71956.81;5024486;28;20038;-92
2021/04/19 01:50:49;;;;;;;31.55;11.82;;;;;;;12.39;56.71;71945.34;4983831;28;20069;-94
2021/04/19 01:53:16;;;;;;;21.75;10.70;;;;;;;11.64;56.37;71861.59;5004266;28;20038;-93
2021/04/19 01:55:43;;;;;;;15.57;9.93;;;;;;;12.51;56.01;71961.81;5025726;28;20034;-93
2021/04/19 01:58:15;;;;;;;16.38;10.65;;;;;;;12.00;55.89;71903.34;5022555;28;20090;-94
2021/04/19 02:00:46;;;;;;;17.52;8.57;;;;;;;11.83;56.02;71883.66;5004417;28;20038;-93
2021/04/19 02:03:49;;;;;;;16.42;9.70;;;;;;;12.78;55.96;71995.59;5002865;28;20018;-93
2021/04/19 02:06:25;;;;;;;32.15;11.95;;;;;;;12.58;56.06;71970.16;5006363;28;20026;-94
2021/04/19 02:09:19;;;;;;;24.67;11.20;;;;;;;12.12;55.69;71916.50;5031793;28;20034;-93
2021/04/19 02:12:15;;;;;;;35.80;13.68;;;;;;;12.76;55.85;71992.63;5006341;28;20094;-95
2021/04/19 02:15:06;;;;;;;24.05;9.32;;;;;;;12.54;55.75;71962.03;5004458;28;20102;-93
2021/04/19 02:18:00;;;;;;;23.10;10.50;;;;;;;12.85;54.77;72000.59;5018772;28;20041;-93
2021/04/19 02:20:33;;;;;;;20.15;11.57;;;;;;;12.62;55.80;71971.59;5026552;28;20131;-93
2021/04/19 02:23:05;;;;;;;18.90;9.80;;;;;;;12.54;55.63;71967.56;5009963;28;20026;-93
2021/04/19 02:25:41;;;;;;;28.30;11.30;;;;;;;11.73;56.28;71869.00;5022316;28;20030;-93
2021/04/19 02:28:19;;;;;;;15.07;9.20;;;;;;;12.47;56.68;71956.44;5040845;28;20030;-93
2021/04/19 02:30:54;;;;;;;16.48;7.15;;;;;;;12.68;57.29;71975.38;5030630;28;20017;-91
2021/04/19 02:33:26;;;;;;;24.13;8.57;;;;;;;12.79;55.73;71996.19;5012201;28;20014;-93
2021/04/19 02:35:53;;;;;;;19.15;8.25;;;;;;;12.69;55.82;71982.69;5014747;28;20047;-90
2021/04/19 02:38:27;;;;;;;22.17;9.68;;;;;;;12.51;55.89;71961.22;5024092;28;20097;-87
2021/04/19 02:40:59;;;;;;;22.35;8.73;;;;;;;13.44;55.55;72068.63;5009515;28;20121;-89
2021/04/19 02:43:30;;;;;;;27.50;12.80;;;;;;;13.34;55.11;72056.69;4995992;28;20111;-89
2021/04/19 02:45:58;;;;;;;18.17;10.60;;;;;;;13.07;55.57;72026.25;5011722;28;20030;-88
2021/04/19 02:48:26;;;;;;;23.70;10.82;;;;;;;12.79;56.55;71993.44;5012458;28;20049;-89
2021/04/19 02:50:54;;;;;;;25.75;10.48;;;;;;;12.70;57.25;71978.38;4998741;28;20059;-89
2021/04/19 02:53:22;;;;;;;22.73;8.65;;;;;;;12.84;57.32;72002.16;5013714;28;20033;-89
2021/04/19 02:55:49;;;;;;;14.77;7.70;;;;;;;13.23;57.80;72044.16;5007086;28;20014;-88
2021/04/19 02:58:43;;;;;;;18.58;8.82;;;;;;;12.98;56.87;72015.50;5030548;28;20057;-89
2021/04/19 03:01:16;;;;;;;17.00;8.75;;;;;;;12.45;56.42;71955.25;5008388;28;20065;-89
2021/04/19 03:03:48;;;;;;;19.98;9.45;;;;;;;13.10;58.25;72026.47;5024717;28;20069;-88
2021/04/19 03:06:16;;;;;;;20.92;10.38;;;;;;;11.82;57.52;71885.22;5023070;28;20066;-90
2021/04/19 03:08:49;;;;;;;24.55;11.18;;;;;;;12.22;57.53;71930.56;5004592;28;20022;-88
2021/04/19 03:11:24;;;;;;;26.83;10.65;;;;;;;12.31;58.35;71938.56;5025330;28;20034;-89
2021/04/19 03:13:54;;;;;;;26.17;10.40;;;;;;;12.89;57.75;72005.34;5023716;28;20034;-88
2021/04/19 03:16:27;;;;;;;23.67;12.40;;;;;;;12.92;57.88;72011.09;5009923;28;20023;-87
2021/04/19 03:18:56;;;;;;;22.63;11.65;;;;;;;12.69;58.44;71979.94;5039259;28;20042;-88
2021/04/19 03:21:26;;;;;;;19.70;10.55;;;;;;;12.99;57.85;72020.06;5007257;28;20110;-88
2021/04/19 03:24:01;;;;;;;18.85;9.55;;;;;;;13.37;57.92;72060.28;5025965;28;20037;-90
2021/04/19 03:26:33;;;;;;;18.90;8.73;;;;;;;13.37;57.69;72060.84;5020687;28;20030;-88
2021/04/19 03:29:01;;;;;;;27.77;10.43;;;;;;;12.24;58.05;71930.22;5034441;28;20065;-88
2021/04/19 03:31:36;;;;;;;23.75;9.60;;;;;;;12.94;58.93;72007.97;5010952;28;20065;-89
2021/04/19 03:34:09;;;;;;;25.95;8.68;;;;;;;12.70;58.88;71986.03;5040656;28;20030;-88
2021/04/19 03:36:37;;;;;;;23.88;9.88;;;;;;;13.36;58.51;72059.06;5034034;28;20057;-89
2021/04/19 03:39:06;;;;;;;26.88;9.60;;;;;;;12.93;58.27;72010.13;5023633;28;20030;-89
2021/04/19 03:41:39;;;;;;;14.18;7.88;;;;;;;13.39;57.85;72062.66;5036020;28;20026;-88
2021/04/19 03:44:11;;;;;;;17.88;10.73;;;;;;;12.38;59.36;71946.91;5028157;28;20038;-92
2021/04/19 03:46:41;;;;;;;21.92;8.93;;;;;;;12.54;59.68;71967.56;5013431;28;20033;-88
2021/04/19 03:49:33;;;;;;;20.70;9.35;;;;;;;13.00;59.05;72018.50;5017673;28;20046;-89
2021/04/19 03:52:05;;;;;;;20.02;9.85;;;;;;;12.30;59.06;71934.59;4993425;28;20034;-88
2021/04/19 03:54:39;;;;;;;19.45;10.68;;;;;;;13.09;59.39;72031.38;4998330;28;20034;-90
2021/04/19 03:57:08;;;;;;;32.15;10.18;;;;;;;13.19;59.30;72039.38;4998942;28;20018;-88
2021/04/19 03:59:37;;;;;;;24.67;11.00;;;;;;;13.32;60.17;72054.31;5034657;28;20775;-91
2021/04/19 04:02:07;;;;;;;31.35;11.07;;;;;;;13.53;59.09;72076.63;5022386;28;20010;-89
2021/04/19 04:04:35;;;;;;;19.58;9.57;;;;;;;13.16;58.65;72036.41;5024470;28;20396;-90
2021/04/19 04:07:05;;;;;;;24.48;10.40;;;;;;;13.32;58.83;72051.53;5002248;28;20099;-89
2021/04/19 04:09:32;;;;;;;29.17;11.05;;;;;;;13.28;59.21;72053.50;5015382;28;20042;-89
2021/04/19 04:11:59;;;;;;;22.50;11.82;;;;;;;12.82;58.05;71997.59;5017547;28;20026;-91
2021/04/19 04:14:26;;;;;;;31.75;12.38;;;;;;;13.30;58.28;72054.69;5021972;28;20053;-88
2021/04/19 04:16:53;;;;;;;27.83;12.32;;;;;;;13.73;58.32;72102.06;4998364;28;20026;-89
2021/04/19 04:19:20;;;;;;;28.92;11.85;;;;;;;13.07;59.38;72028.41;5002805;28;20035;-89
2021/04/19 04:21:48;;;;;;;22.15;10.02;;;;;;;13.02;59.48;72020.28;5007384;28;20034;-89
2021/04/19 04:24:16;;;;;;;28.45;10.43;;;;;;;12.81;58.86;71996.41;5038190;28;20033;-88
2021/04/19 04:26:43;;;;;;;30.02;12.73;;;;;;;13.50;58.79;72075.81;5036123;28;20022;-87
2021/04/19 04:29:10;;;;;;;30.33;10.48;;;;;;;13.72;59.05;72098.13;5007931;28;20053;-89
2021/04/19 04:31:37;;;;;;;47.88;11.68;;;;;;;12.49;60.02;71959.44;5024995;28;20031;-89
2021/04/19 04:34:03;;;;;;;17.15;10.35;;;;;;;13.75;59.91;72101.09;5004818;28;20085;-89
2021/04/19 04:36:30;;;;;;;24.48;10.05;;;;;;;13.45;59.73;72072.59;5022122;28;20559;-90
2021/04/19 04:38:57;;;;;;;22.67;10.52;;;;;;;13.50;59.76;72078.56;5034821;28;20022;-90
2021/04/19 04:41:24;;;;;;;22.13;9.90;;;;;;;12.87;59.75;72000.22;5029716;28;20030;-90
2021/04/19 04:43:56;;;;;;;25.48;9.93;;;;;;;13.31;59.70;72056.47;5008404;28;20034;-90
2021/04/19 04:46:35;;;;;;;25.40;12.35;;;;;;;13.47;59.96;72069.47;4998265;28;20030;-88
2021/04/19 04:49:13;;;;;;;22.43;10.27;;;;;;;13.70;59.51;72092.97;5008568;28;20125;-90
2021/04/19 04:51:42;;;;;;;29.83;10.27;;;;;;;12.86;57.98;72004.53;4992388;28;20361;-87
2021/04/19 04:54:13;;;;;;;27.92;10.85;;;;;;;13.35;59.11;72058.47;5019563;28;20033;-89
2021/04/19 04:56:43;;;;;;;27.63;10.23;;;;;;;13.30;58.74;72046.97;4998867;28;20113;-89
2021/04/19 04:59:12;;;;;;;18.15;10.48;;;;;;;13.78;59.61;72110.81;5027508;28;20054;-89
2021/04/19 05:01:42;;;;;;;30.17;10.27;;;;;;;13.47;59.29;72072.22;5008929;28;20030;-87
2021/04/19 05:04:11;;;;;;;29.52;10.32;;;;;;;13.37;59.68;72063.03;4993866;28;20033;-88
2021/04/19 05:06:38;;;;;;;29.17;9.55;;;;;;;13.10;58.75;72029.84;4997050;28;20129;-89
2021/04/19 05:09:09;;;;;;;32.22;10.85;;;;;;;12.78;59.69;71992.25;5009726;28;20029;-89
2021/04/19 05:11:41;;;;;;;19.75;8.52;;;;;;;13.59;59.96;72082.59;5007633;28;20018;-90
2021/04/19 05:14:08;;;;;;;27.02;10.43;;;;;;;13.43;59.59;72070.19;5033971;28;20025;-88
2021/04/19 05:16:38;;;;;;;28.75;11.43;;;;;;;13.45;60.24;72069.22;4996566;28;20053;-85
2021/04/19 05:19:06;;;;;;;24.17;10.75;;;;;;;12.97;61.14;72017.66;4997079;28;20030;-86
2021/04/19 05:21:34;;;;;;;28.33;10.88;;;;;;;12.58;60.78;71961.28;5009852;28;20022;-84
2021/04/19 05:24:01;;;;;;;35.40;11.95;;;;;;;12.91;60.17;72007.16;5009591;28;20395;-85
2021/04/19 05:26:29;;;;;;;31.60;10.75;;;;;;;12.76;59.28;71992.63;5005472;28;20013;-84
2021/04/19 05:28:56;;;;;;;31.27;11.40;;;;;;;13.65;59.00;72093.13;5015068;28;20037;-84
2021/04/19 05:31:22;;;;;;;31.98;9.88;;;;;;;13.15;59.34;72035.22;4994917;28;20034;-86
2021/04/19 05:33:57;;;;;;;21.10;10.07;;;;;;;13.51;58.73;72079.16;5013152;28;20026;-86
2021/04/19 05:36:26;;;;;;;27.70;9.13;;;;;;;13.53;59.16;72073.88;5011316;28;20032;-86
2021/04/19 05:38:54;;;;;;;30.20;11.45;;;;;;;13.77;59.43;72109.63;5000582;28;20026;-87
2021/04/19 05:41:22;;;;;;;25.75;12.55;;;;;;;13.84;59.12;72114.59;5000634;28;20022;-91
2021/04/19 05:43:49;;;;;;;29.75;10.32;;;;;;;12.82;59.75;71999.75;5016775;28;20050;-92
2021/04/19 05:46:17;;;;;;;22.70;9.45;;;;;;;13.52;60.65;72077.59;5031401;28;20097;-90
2021/04/19 05:48:44;;;;;;;21.65;11.02;;;;;;;13.77;61.10;72109.63;5028513;28;20044;-89
2021/04/19 05:51:28;;;;;;;26.85;10.95;;;;;;;14.18;59.55;72156.19;5000821;28;20026;-91
2021/04/19 05:53:57;;;;;;;24.23;10.48;;;;;;;13.64;59.24;72088.56;5000944;28;20443;-92
2021/04/19 05:57:02;;;;;;;25.73;9.77;;;;;;;13.36;59.34;72059.06;5021958;28;20023;-90
2021/04/19 05:59:37;;;;;;;33.17;10.85;;;;;;;13.90;59.72;72121.19;5026698;28;20422;-91
2021/04/19 06:02:07;;;;;;;25.33;9.95;;;;;;;13.35;59.44;72055.13;5019015;28;20464;-92
2021/04/19 06:05:00;;;;;;;21.55;11.13;;;;;;;13.34;61.01;72056.69;5016030;28;20060;-92
2021/04/19 06:07:42;;;;;;;24.13;9.77;;;;;;;13.55;60.12;72079.00;5014440;28;20080;-93
2021/04/19 06:10:17;;;;;;;28.15;12.52;;;;;;;13.73;60.75;72104.84;5012319;28;20125;-89
2021/04/19 06:12:51;;;;;;;23.23;10.25;;;;;;;13.28;59.90;72047.97;5008677;28;20034;-84
2021/04/19 06:15:23;;;;;;;29.17;12.98;;;;;;;13.15;60.18;72035.22;5000310;28;20019;-88
2021/04/19 06:17:52;;;;;;;24.75;10.20;;;;;;;13.03;60.37;72018.13;4988676;28;20072;-90
2021/04/19 06:20:20;;;;;;;25.58;10.80;;;;;;;13.05;60.76;72023.25;4996855;28;20014;-91
2021/04/19 06:22:52;;;;;;;22.52;10.38;;;;;;;13.11;61.54;72027.66;5015493;28;20026;-91
2021/04/19 06:25:20;;;;;;;30.92;10.95;;;;;;;13.11;61.33;72033.19;5030887;28;20022;-92
2021/04/19 06:28:06;;;;;;;31.38;11.30;;;;;;;13.08;62.02;72029.59;5033145;28;20112;-90
2021/04/19 06:30:44;;;;;;;24.25;10.23;;;;;;;13.10;61.81;72032.59;5033297;28;20129;-90
2021/04/19 06:33:16;;;;;;;39.95;12.82;;;;;;;13.04;61.02;72019.31;5022804;28;20023;-92
2021/04/19 06:35:44;;;;;;;25.92;11.55;;;;;;;12.89;61.33;72004.78;5026177;28;20079;-90
2021/04/19 06:38:11;;;;;;;23.83;8.85;;;;;;;12.11;60.50;71918.63;5016102;23;20067;-91
2021/04/19 06:40:40;;;;;;;18.48;11.00;;;;;;;12.96;60.58;72013.72;4967966;29;20039;-86
2021/04/19 06:43:08;;;;;;;31.05;10.90;;;;;;;12.38;60.03;71946.91;4970732;28;20042;-85
2021/04/19 06:45:37;;;;;;;27.25;10.43;;;;;;;13.27;59.96;72048.94;4953942;28;20034;-85
2021/04/19 06:48:07;;;;;;;27.60;11.33;;;;;;;13.75;59.51;72107.25;4969073;28;20024;-86
2021/04/19 06:50:35;;;;;;;18.13;6.88;;;;;;;12.59;60.10;71968.59;4970077;28;20664;-90
2021/04/19 06:53:02;;;;;;;26.80;10.05;;;;;;;13.37;60.34;72060.84;4952832;28;20031;-87
2021/04/19 06:55:29;;;;;;;32.45;12.50;;;;;;;12.75;60.66;71992.00;4954089;28;20175;-85
2021/04/19 06:57:59;;;;;;;23.25;12.30;;;;;;;13.52;60.46;72080.97;4969504;28;20035;-85
2021/04/19 07:00:29;;;;;;;26.17;11.75;;;;;;;12.85;61.73;71998.41;4968038;28;20019;-88
2021/04/19 07:03:00;;;;;;;21.33;11.10;;;;;;;13.40;61.64;72063.84;4969447;28;20400;-89
2021/04/19 07:05:33;;;;;;;20.20;10.45;;;;;;;13.22;61.93;72046.31;4950604;29;20088;-91
2021/04/19 07:08:12;;;;;;;29.23;11.52;;;;;;;13.28;61.81;72052.88;4970363;28;20114;-89
2021/04/19 07:10:41;;;;;;;28.90;12.48;;;;;;;13.51;61.48;72079.78;4980130;28;20066;-89
2021/04/19 07:13:10;;;;;;;22.80;11.38;;;;;;;13.96;60.36;72128.94;4989652;28;20023;-89
2021/04/19 07:15:47;;;;;;;23.63;10.60;;;;;;;13.37;60.60;72063.63;4955282;28;20044;-91
2021/04/19 07:18:15;;;;;;;23.85;11.18;;;;;;;13.88;60.14;72118.78;4936255;29;20157;-89
2021/04/19 07:20:44;;;;;;;34.70;13.23;;;;;;;13.58;60.84;72081.41;4953336;29;20110;-89
2021/04/19 07:23:12;;;;;;;34.75;13.18;;;;;;;13.66;61.05;72096.47;4968664;28;20134;-89
2021/04/19 07:25:39;;;;;;;30.65;11.75;;;;;;;13.76;61.20;72105.66;4937045;29;20107;-90
2021/04/19 07:28:06;;;;;;;34.55;12.65;;;;;;;13.82;60.42;72115.59;4938801;29;20038;-90
2021/04/19 07:30:34;;;;;;;32.22;12.95;;;;;;;13.81;59.74;72113.81;4939555;29;20040;-90
2021/04/19 07:33:00;;;;;;;29.67;11.57;;;;;;;13.43;61.24;72070.19;4940204;29;20027;-89
2021/04/19 07:35:30;;;;;;;25.20;12.05;;;;;;;13.30;61.30;72055.25;4938407;29;20019;-89
2021/04/19 07:38:07;;;;;;;19.73;11.55;;;;;;;13.12;61.26;72028.84;4952747;29;20094;-86
2021/04/19 07:40:39;;;;;;;34.67;10.40;;;;;;;13.52;61.58;72075.44;4935113;29;20027;-86
2021/04/19 07:43:16;;;;;;;38.15;13.52;;;;;;;13.58;61.32;72082.00;4936506;29;20015;-85
2021/04/19 07:46:11;;;;;;;24.73;12.55;;;;;;;13.63;62.04;72087.38;4936394;29;20079;-88
2021/04/19 07:48:45;;;;;;;23.45;12.85;;;;;;;13.54;61.62;72080.59;4953028;28;20038;-88
2021/04/19 07:51:37;;;;;;;24.92;11.70;;;;;;;13.51;61.96;72074.25;4968499;28;20038;-88
2021/04/19 07:54:22;;;;;;;25.25;12.60;;;;;;;13.10;61.48;72032.00;4938831;29;20024;-85
2021/04/19 07:56:54;;;;;;;30.25;13.93;;;;;;;13.77;61.10;72106.25;4936187;29;20043;-87
2021/04/19 07:59:30;;;;;;;36.72;11.60;;;;;;;13.85;61.48;72117.97;4952031;29;20434;-86
2021/04/19 08:02:09;;;;;;;26.25;13.52;;;;;;;13.87;61.51;72120.38;4952532;29;20063;-85
2021/04/19 08:04:50;;;;;;;23.53;9.77;;;;;;;13.58;61.31;72086.91;4945158;29;20028;-87
2021/04/19 08:07:21;;;;;;;28.70;12.98;;;;;;;13.89;61.72;72123.34;4963544;28;20366;-85
2021/04/19 08:10:07;;;;;;;35.25;13.60;;;;;;;13.86;61.54;72113.66;4955746;29;20054;-86
2021/04/19 08:12:42;;;;;;;25.45;12.45;;;;;;;13.55;61.45;72078.41;4959217;29;20075;-86
2021/04/19 08:15:11;;;;;;;28.58;12.25;;;;;;;13.61;61.71;72087.75;4945408;29;20031;-85
2021/04/19 08:17:39;;;;;;;28.30;13.00;;;;;;;13.30;61.62;72052.50;4983008;28;20031;-86
2021/04/19 08:20:09;;;;;;;21.73;14.05;;;;;;;13.33;62.80;72052.72;4953951;29;20031;-86
2021/04/19 08:22:36;;;;;;;30.23;11.85;;;;;;;13.44;62.41;72071.41;4957123;29;20044;-86
2021/04/19 08:25:13;;;;;;;36.53;12.77;;;;;;;13.40;62.51;72064.47;4983780;28;20079;-85
2021/04/19 08:27:42;;;;;;;23.10;12.43;;;;;;;12.01;63.50;71907.28;4959357;29;20071;-87
2021/04/19 08:30:15;;;;;;;36.08;14.05;;;;;;;12.10;64.89;71909.19;4948450;29;20047;-86
2021/04/19 08:32:46;;;;;;;28.58;13.93;;;;;;;11.89;63.94;71893.56;4957422;29;20031;-86
2021/04/19 08:35:13;;;;;;;26.33;11.48;;;;;;;12.42;64.96;71954.41;4973204;29;20011;-85
2021/04/19 08:37:41;;;;;;;34.70;11.55;;;;;;;13.21;63.64;72039.00;4956128;29;20053;-86
2021/04/19 08:40:10;;;;;;;20.38;10.38;;;;;;;12.58;63.95;71972.94;4957813;29;20031;-85
2021/04/19 08:42:37;;;;;;;32.50;12.45;;;;;;;12.38;64.60;71946.31;4956123;28;20028;-86
2021/04/19 08:45:05;;;;;;;32.42;11.50;;;;;;;12.40;65.12;71946.53;4957221;28;20051;-83
2021/04/19 08:47:33;;;;;;;21.70;11.48;;;;;;;12.14;65.93;71918.88;4971646;29;20447;-86
2021/04/19 08:50:05;;;;;;;25.38;11.60;;;;;;;12.52;66.29;71965.75;4971442;29;20047;-84
2021/04/19 08:52:33;;;;;;;22.13;12.88;;;;;;;12.02;66.32;71908.47;4987384;28;20063;-87
2021/04/19 08:54:59;;;;;;;24.85;11.30;;;;;;;12.01;65.60;71903.94;4954180;29;20028;-84
2021/04/19 08:57:26;;;;;;;28.85;13.38;;;;;;;12.14;65.47;71919.44;4988013;28;20034;-85
2021/04/19 08:59:54;;;;;;;29.67;11.77;;;;;;;12.84;65.65;71999.41;4954529;29;20047;-88
2021/04/19 09:02:23;;;;;;;31.55;13.63;;;;;;;12.61;65.78;71975.31;4956457;29;20031;-86
2021/04/19 09:05:12;;;;;;;34.60;13.07;;;;;;;12.63;66.60;71974.94;4959471;28;20036;-90
2021/04/19 09:07:45;;;;;;;24.67;10.48;;;;;;;11.94;66.29;71898.34;4959273;28;20038;-88
2021/04/19 09:10:18;;;;;;;38.22;13.93;;;;;;;11.34;67.02;71830.38;4990830;28;20047;-87
2021/04/19 09:12:45;;;;;;;34.35;12.57;;;;;;;12.44;66.98;71954.03;4949801;29;20038;-87
2021/04/19 09:15:29;;;;;;;27.08;11.90;;;;;;;12.42;66.82;71948.91;4954663;28;20032;-89
2021/04/19 09:18:10;;;;;;;26.67;12.35;;;;;;;11.97;66.66;71896.41;4951841;28;20057;-87
2021/04/19 09:20:54;;;;;;;35.35;11.35;;;;;;;12.51;67.08;71961.81;4936194;29;20046;-86
2021/04/19 09:23:23;;;;;;;30.17;10.70;;;;;;;12.62;66.57;71974.34;4936784;29;20038;-84
2021/04/19 09:25:50;;;;;;;24.58;11.25;;;;;;;11.95;67.12;71896.78;4935381;29;20122;-84
2021/04/19 09:28:41;;;;;;;28.63;11.98;;;;;;;12.36;67.18;71946.69;4976707;28;20112;-88
2021/04/19 09:31:10;;;;;;;25.95;12.38;;;;;;;12.36;67.57;71943.91;4958730;28;20036;-87
2021/04/19 09:33:38;;;;;;;27.98;11.80;;;;;;;11.59;67.89;71856.25;4958171;29;20082;-85
2021/04/19 09:36:06;;;;;;;40.47;12.70;;;;;;;12.37;67.51;71942.34;4955367;28;20421;-84
2021/04/19 09:38:33;;;;;;;27.92;12.90;;;;;;;12.41;68.31;71952.63;4959834;29;20079;-90
2021/04/19 09:41:03;;;;;;;40.90;14.43;;;;;;;12.04;67.82;71908.13;4961446;29;20059;-89
2021/04/19 09:43:39;;;;;;;26.07;12.60;;;;;;;12.55;67.50;71963.81;4941114;29;20027;-90
2021/04/19 09:46:16;;;;;;;36.33;13.10;;;;;;;11.16;68.10;71808.91;4960128;29;20039;-90
2021/04/19 09:48:56;;;;;;;25.90;13.73;;;;;;;12.26;68.20;71935.34;4959706;28;20028;-91
2021/04/19 09:51:33;;;;;;;38.33;14.02;;;;;;;12.17;67.99;71923.03;4943199;29;20087;-92
2021/04/19 09:54:11;;;;;;;30.52;13.63;;;;;;;11.98;68.79;71900.34;4959361;28;20055;-90
2021/04/19 09:56:45;;;;;;;24.98;11.60;;;;;;;11.43;68.76;71839.91;4937874;29;20028;-87
2021/04/19 09:59:24;;;;;;;26.25;12.73;;;;;;;11.78;69.40;71877.72;4955249;28;20434;-89
2021/04/19 10:01:54;;;;;;;28.25;12.13;;;;;;;11.64;69.49;71864.34;4951688;29;20114;-89
2021/04/19 10:04:22;;;;;;;25.15;12.20;;;;;;;10.90;69.63;71779.13;4953057;28;20402;-91
2021/04/19 10:06:58;;;;;;;30.92;11.75;;;;;;;11.62;69.23;71859.22;4939445;29;20042;-90
2021/04/19 10:09:30;;;;;;;24.10;11.35;;;;;;;11.63;68.59;71863.16;4941352;29;20032;-85
2021/04/19 10:12:02;;;;;;;29.90;11.70;;;;;;;11.33;68.75;71829.19;4952903;29;20024;-89
2021/04/19 10:14:38;;;;;;;29.27;13.32;;;;;;;11.48;69.14;71846.47;4940527;29;20028;-93
2021/04/19 10:17:21;;;;;;;22.08;11.13;;;;;;;11.46;68.93;71844.09;4944533;28;20012;-92
2021/04/19 10:19:48;;;;;;;30.40;13.82;;;;;;;11.43;68.98;71839.91;4971794;28;20016;-92
2021/04/19 10:22:18;;;;;;;34.92;13.07;;;;;;;11.47;68.55;71845.28;4989651;28;20043;-91
2021/04/19 10:24:53;;;;;;;34.53;12.85;;;;;;;11.38;68.67;71833.94;4956568;28;20059;-90
2021/04/19 10:27:25;;;;;;;32.83;13.35;;;;;;;11.43;68.57;71839.91;4967947;29;20040;-87
2021/04/19 10:29:56;;;;;;;26.05;12.90;;;;;;;11.56;68.28;71855.41;4938067;29;20115;-91
2021/04/19 10:32:30;;;;;;;35.67;13.25;;;;;;;11.37;69.46;71830.63;4942024;29;20115;-89
2021/04/19 10:34:57;;;;;;;26.30;12.57;;;;;;;10.07;68.86;71681.06;4959635;29;20135;-92
2021/04/19 10:37:24;;;;;;;25.42;12.48;;;;;;;11.44;69.11;71838.34;4955580;28;20060;-91
2021/04/19 10:39:55;;;;;;;29.88;12.75;;;;;;;11.05;69.17;71796.41;4947254;28;20032;-87
2021/04/19 10:42:31;;;;;;;27.08;12.02;;;;;;;11.21;69.55;71809.38;4989359;28;20020;-91
2021/04/19 10:45:08;;;;;;;30.90;11.63;;;;;;;10.74;69.81;71758.50;4986332;28;20027;-90
2021/04/19 10:47:35;;;;;;;28.00;11.85;;;;;;;9.72;70.00;71643.91;4969568;28;20389;-83
2021/04/19 10:50:02;;;;;;;33.67;16.27;;;;;;;10.79;70.13;71761.72;4937430;29;20067;-90
2021/04/19 10:52:30;;;;;;;29.58;11.77;;;;;;;11.19;69.68;71807.59;4966965;28;20058;-87
2021/04/19 10:54:57;;;;;;;32.75;13.98;;;;;;;10.63;70.13;71748.75;4933865;29;20066;-88
2021/04/19 10:57:28;;;;;;;27.45;13.90;;;;;;;10.45;70.82;71719.66;4966382;28;20046;-90
2021/04/19 10:59:57;;;;;;;33.20;12.70;;;;;;;11.12;70.61;71798.66;4938130;29;20031;-90
2021/04/19 11:02:29;;;;;;;25.88;12.55;;;;;;;10.78;69.97;71766.03;4939720;29;20032;-90
2021/04/19 11:04:56;;;;;;;24.50;11.68;;;;;;;10.58;70.00;71739.44;4936542;29;20499;-90
2021/04/19 11:07:32;;;;;;;34.45;14.50;;;;;;;11.20;70.52;71808.78;4953717;28;20461;-89
2021/04/19 11:10:20;;;;;;;31.00;13.75;;;;;;;11.25;69.96;71816.91;4938336;29;20043;-89
2021/04/19 11:12:58;;;;;;;28.20;12.48;;;;;;;11.27;70.16;71816.53;4939320;29;20122;-89
2021/04/19 11:15:29;;;;;;;37.40;13.93;;;;;;;11.07;70.15;71796.63;4972042;28;20044;-89
2021/04/19 11:17:56;;;;;;;28.40;13.13;;;;;;;11.02;69.62;71790.69;4947252;29;20159;-90
2021/04/19 11:20:25;;;;;;;34.97;12.88;;;;;;;10.71;69.82;71752.19;4982419;28;20058;-89
2021/04/19 11:22:52;;;;;;;30.67;13.93;;;;;;;11.28;69.78;71823.22;4974044;28;20075;-91
2021/04/19 11:25:20;;;;;;;19.92;11.23;;;;;;;11.41;70.01;71832.03;4939793;29;20056;-90
2021/04/19 11:27:50;;;;;;;33.60;13.23;;;;;;;10.10;69.83;71687.41;4934213;29;20453;-89
2021/04/19 11:30:25;;;;;;;28.20;14.13;;;;;;;11.49;69.41;71844.31;4953162;29;20505;-88
2021/04/19 11:33:12;;;;;;;26.27;13.35;;;;;;;11.38;69.64;71831.81;4953035;29;20489;-88
2021/04/19 11:35:45;;;;;;;22.98;13.32;;;;;;;11.23;70.33;71814.50;4936360;29;20145;-83
2021/04/19 11:38:16;;;;;;;27.45;12.15;;;;;;;10.84;69.79;71767.09;4948156;28;20062;-87
2021/04/19 11:40:45;;;;;;;26.85;13.25;;;;;;;10.98;70.11;71783.16;4967070;28;20485;-85